Time;durP1;ratioP1;P1;durP2;ratioP2;P2;SDS_P1;SDS_P2;PMS_P1;PMS_P2;Temp;Humidity;BMP_temperature;BMP_pressure;BME280_temperature;BME280_humidity;BME280_pressure;Samples;Min_cycle;Max_cycle;Signal;HPM_P1;HPM_P2
2023/04/04 00:00:10;;;;;;;;;7.83;7.50;;;;;9.50;46.38;102386.28;1996281;28;2741948;-81
2023/04/04 00:01:24;;;;;;;;;9.83;8.50;;;;;9.49;46.04;102381.88;1996502;28;2758594;-81
2023/04/04 00:02:37;;;;;;;;;5.83;5.33;;;;;9.48;46.16;102382.78;1973207;28;2746138;-81
2023/04/04 00:03:51;;;;;;;;;8.33;8.33;;;;;9.47;46.27;102383.63;1996620;28;2739861;-81
2023/04/04 00:05:05;;;;;;;;;9.17;8.00;;;;;9.45;46.51;102384.53;1995850;28;2746111;-81
2023/04/04 00:06:18;;;;;;;;;7.00;7.00;;;;;9.45;45.59;102386.28;2004375;28;2736732;-80
2023/04/04 00:07:32;;;;;;;;;6.67;6.67;;;;;9.44;46.28;102387.16;2000821;28;2736717;-81
2023/04/04 00:08:46;;;;;;;;;7.00;5.83;;;;;9.42;45.83;102381.03;2002459;28;2736776;-81
2023/04/04 00:09:59;;;;;;;;;7.83;7.00;;;;;9.40;45.73;102381.03;1974492;28;2727354;-81
2023/04/04 00:11:12;;;;;;;;;9.67;8.00;;;;;9.40;45.82;102382.78;1996309;28;2760144;-81
2023/04/04 00:12:26;;;;;;;;;6.83;6.83;;;;;9.38;45.60;102388.03;1971957;28;2737781;-80
2023/04/04 00:13:37;;;;;;;;;9.00;7.00;;;;;9.37;45.94;102385.41;1970177;28;3452325;-81
2023/04/04 00:14:48;;;;;;;;;8.67;8.67;;;;;9.36;45.91;102386.31;1970238;28;2747254;-80
2023/04/04 00:15:59;;;;;;;;;7.00;6.00;;;;;9.35;45.88;102382.78;1995846;28;2739849;-81
2023/04/04 00:17:12;;;;;;;;;7.00;6.67;;;;;9.35;45.87;102382.78;1973367;28;2733615;-81
2023/04/04 00:18:25;;;;;;;;;7.50;7.50;;;;;9.34;46.08;102381.91;1994952;28;2748561;-80
2023/04/04 00:19:38;;;;;;;;;7.83;6.17;;;;;9.34;46.18;102381.03;1998783;28;2733628;-80
2023/04/04 00:20:52;;;;;;;;;7.50;6.00;;;;;9.35;46.00;102385.41;2003681;28;2734641;-80
2023/04/04 00:22:05;;;;;;;;;7.00;7.00;;;;;9.34;45.95;102378.41;1995961;28;2741963;-81
2023/04/04 00:23:18;;;;;;;;;6.33;6.00;;;;;9.34;45.70;102381.03;1994158;28;2735682;-80
2023/04/04 00:24:32;;;;;;;;;6.17;4.50;;;;;9.32;46.20;102378.41;1996340;28;2739858;-80
2023/04/04 00:25:52;;;;;;;;;7.00;6.17;;;;;9.33;46.07;102388.03;1995405;28;2742016;-80
2023/04/04 00:27:05;;;;;;;;;6.17;6.17;;;;;9.33;46.11;102379.31;1996865;28;2734658;-80
2023/04/04 00:28:17;;;;;;;;;7.00;7.00;;;;;9.32;46.34;102378.41;1970428;28;2733108;-81
2023/04/04 00:29:30;;;;;;;;;4.00;3.67;;;;;9.30;45.90;102382.81;1996135;28;2736023;-80
2023/04/04 00:30:44;;;;;;;;;7.50;6.67;;;;;9.31;46.16;102386.31;1996698;28;2744083;-81
2023/04/04 00:31:57;;;;;;;;;7.17;7.17;;;;;9.29;46.20;102382.78;1996252;28;2739866;-80
2023/04/04 00:33:10;;;;;;;;;7.83;6.33;;;;;9.28;45.13;102388.94;1996131;28;2733628;-80
2023/04/04 00:34:23;;;;;;;;;7.50;6.83;;;;;9.26;45.03;102385.44;1993313;28;2736717;-80
2023/04/04 00:35:37;;;;;;;;;7.83;6.67;;;;;9.23;45.90;102381.91;1995046;28;2736439;-80
2023/04/04 00:36:51;;;;;;;;;5.83;5.83;;;;;9.23;45.95;102388.94;1989820;28;2742971;-81
2023/04/04 00:38:05;;;;;;;;;6.33;6.33;;;;;9.23;45.91;102388.94;1996716;28;2733923;-80
2023/04/04 00:39:18;;;;;;;;;7.50;6.00;;;;;9.22;45.91;102380.19;1995827;28;2736813;-80
2023/04/04 00:40:39;;;;;;;;;8.83;8.50;;;;;9.21;45.46;102381.03;1988786;28;2726308;-80
2023/04/04 00:41:52;;;;;;;;;6.00;6.00;;;;;9.20;45.71;102389.81;1967736;28;2733595;-80
2023/04/04 00:43:03;;;;;;;;;8.67;7.00;;;;;9.20;45.70;102394.16;1971281;28;2733612;-80
2023/04/04 00:44:14;;;;;;;;;6.67;6.00;;;;;9.18;46.04;102388.94;1995964;28;2724260;-80
2023/04/04 00:45:28;;;;;;;;;7.50;7.50;;;;;9.17;45.67;102387.19;1996215;28;2739896;-80
2023/04/04 00:46:41;;;;;;;;;9.17;6.83;;;;;9.17;45.78;102388.91;1988125;28;2739842;-80
2023/04/04 00:47:55;;;;;;;;;7.33;6.33;;;;;9.15;46.08;102388.06;1967469;28;2735683;-80
2023/04/04 00:49:08;;;;;;;;;7.83;6.50;;;;;9.15;45.73;102391.56;1980443;28;2737790;-80
2023/04/04 00:50:21;;;;;;;;;7.67;7.33;;;;;9.14;45.82;102388.91;1995336;28;2735686;-80
2023/04/04 00:51:32;;;;;;;;;11.33;7.00;;;;;9.13;45.63;102387.19;1939446;28;2761793;-80
2023/04/04 00:52:43;;;;;;;;;7.00;7.00;;;;;9.12;46.39;102386.31;1988452;28;2738819;-80
2023/04/04 00:53:57;;;;;;;;;8.50;8.33;;;;;9.13;46.14;102390.69;1974347;28;2735220;-80
2023/04/04 00:55:10;;;;;;;;;6.17;6.17;;;;;9.11;46.53;102385.41;1995535;28;2741925;-80
2023/04/04 00:56:24;;;;;;;;;6.00;5.00;;;;;9.11;46.55;102393.28;1995904;28;2746584;-80
2023/04/04 00:57:35;;;;;;;;;10.00;7.33;;;;;9.11;46.17;102392.44;1938243;28;3484615;-80
2023/04/04 00:58:47;;;;;;;;;8.00;5.25;;;;;9.11;46.35;102389.81;1988816;28;2732637;-80
2023/04/04 01:00:03;;;;;;;;;6.33;6.33;;;;;9.10;45.72;102385.44;1982920;28;2735743;-80
2023/04/04 01:01:17;;;;;;;;;8.00;7.00;;;;;9.09;45.93;102392.41;1996057;28;2735699;-80
2023/04/04 01:02:30;;;;;;;;;6.00;6.00;;;;;9.08;46.08;102379.31;1996466;28;2731521;-80
2023/04/04 01:03:44;;;;;;;;;7.00;7.00;;;;;9.07;46.57;102381.06;1996124;28;2732561;-80
2023/04/04 01:04:57;;;;;;;;;5.17;5.17;;;;;9.09;46.61;102386.28;1995914;28;2726836;-80
2023/04/04 01:06:08;;;;;;;;;8.33;7.33;;;;;9.07;46.44;102372.31;1968937;28;3453374;-80
2023/04/04 01:07:20;;;;;;;;;9.50;7.00;;;;;9.06;46.29;102383.69;1995808;28;2742967;-80
2023/04/04 01:08:37;;;;;;;;;8.17;8.00;;;;;9.05;46.41;102379.31;1996251;28;2738188;-80
2023/04/04 01:09:50;;;;;;;;;8.00;6.83;;;;;9.04;46.21;102375.81;1996839;28;2732554;-80
2023/04/04 01:11:05;;;;;;;;;7.67;6.83;;;;;9.03;46.17;102375.81;1996637;28;2734667;-80
2023/04/04 01:12:15;;;;;;;;;10.33;9.67;;;;;9.02;46.61;102374.94;1969012;28;2774342;-80
2023/04/04 01:13:27;;;;;;;;;8.50;8.00;;;;;9.00;46.25;102369.69;1993370;28;2736739;-80
2023/04/04 01:14:41;;;;;;;;;9.00;7.67;;;;;9.00;46.38;102366.19;1974100;28;2746095;-80
2023/04/04 01:15:54;;;;;;;;;9.00;8.00;;;;;8.99;45.91;102372.31;1973046;28;2731544;-80
2023/04/04 01:17:07;;;;;;;;;8.67;7.00;;;;;8.97;46.36;102364.44;1965057;28;2737766;-80
2023/04/04 01:18:20;;;;;;;;;11.33;9.67;;;;;8.96;46.18;102365.31;1962351;28;3496084;-80
2023/04/04 01:20:06;;;;;;;;;6.67;6.67;;;;;8.94;46.50;102356.56;1996439;28;2734645;-80
2023/04/04 01:21:21;;;;;;;;;6.00;5.83;;;;;8.94;46.68;102355.72;1992717;28;2734657;-80
2023/04/04 01:22:37;;;;;;;;;7.83;6.83;;;;;8.93;46.28;102359.19;1995935;28;2741925;-80
2023/04/04 01:23:57;;;;;;;;;5.50;3.33;;;;;8.94;46.45;102363.59;1996428;28;2727342;-80
2023/04/04 01:25:12;;;;;;;;;5.67;5.67;;;;;8.92;46.33;102360.06;1996214;28;2735660;-81
2023/04/04 01:26:26;;;;;;;;;9.83;7.17;;;;;8.89;46.02;102358.31;1996073;28;2754424;-80
2023/04/04 01:27:39;;;;;;;;;9.00;6.00;;;;;8.88;46.20;102362.72;1973633;28;2737794;-80
2023/04/04 01:28:53;;;;;;;;;8.50;6.67;;;;;8.88;46.54;102361.81;1995415;28;2749244;-80
2023/04/04 01:30:08;;;;;;;;;4.33;4.33;;;;;8.86;46.20;102358.34;2003206;28;2744015;-80
2023/04/04 01:31:35;;;;;;;;;6.00;6.00;;;;;8.85;46.08;102361.81;1991349;28;2739834;-80
2023/04/04 01:33:00;;;;;;;;;6.00;6.00;;;;;8.82;46.48;102361.81;1998975;28;2735146;-80
2023/04/04 01:34:41;;;;;;;;;8.33;7.33;;;;;8.81;45.98;102370.56;1996965;28;2737776;-80
2023/04/04 01:36:14;;;;;;;;;8.33;8.17;;;;;8.76;46.13;102368.81;1996762;28;2744032;-80
2023/04/04 01:37:40;;;;;;;;;9.17;7.50;;;;;8.76;46.48;102360.06;1997532;28;2732573;-80
2023/04/04 01:38:56;;;;;;;;;7.67;7.67;;;;;8.74;46.23;102367.91;1974721;28;2728393;-80
2023/04/04 01:40:20;;;;;;;;;8.00;6.50;;;;;8.73;46.56;102368.81;1996919;28;2731512;-80
2023/04/04 01:41:34;;;;;;;;;11.33;7.00;;;;;8.71;46.18;102370.56;1971224;28;2767026;-80
2023/04/04 01:42:48;;;;;;;;;6.50;6.50;;;;;8.69;46.37;102380.16;1988849;28;2738828;-80
2023/04/04 01:44:02;;;;;;;;;10.33;8.83;;;;;8.68;46.82;102375.78;1996619;28;2736752;-80
2023/04/04 01:45:16;;;;;;;;;9.83;7.50;;;;;8.66;46.66;102374.91;1979407;28;2756623;-80
2023/04/04 01:46:26;;;;;;;;;8.67;8.33;;;;;8.65;46.87;102374.03;1985691;28;1831522;-80
2023/04/04 01:47:41;;;;;;;;;9.67;9.00;;;;;8.63;46.12;102373.16;1974382;28;2757605;-80
2023/04/04 01:48:54;;;;;;;;;7.17;7.17;;;;;8.60;46.61;102373.16;1976002;28;2736708;-80
2023/04/04 01:50:10;;;;;;;;;8.33;7.17;;;;;8.59;46.45;102375.78;1995861;28;2746126;-80
2023/04/04 01:51:22;;;;;;;;;9.00;8.00;;;;;8.56;46.34;102374.00;1939951;28;2756567;-80
2023/04/04 01:52:36;;;;;;;;;6.33;6.33;;;;;8.54;46.70;102381.84;1991298;28;2733673;-80
2023/04/04 01:53:49;;;;;;;;;5.50;5.50;;;;;8.53;46.29;102373.97;1998278;28;2732586;-80
2023/04/04 01:55:03;;;;;;;;;8.67;7.67;;;;;8.52;46.47;102388.81;1974947;28;2741936;-80
2023/04/04 01:56:17;;;;;;;;;8.17;7.00;;;;;8.49;46.36;102380.97;1997097;28;2733064;-80
2023/04/04 01:57:30;;;;;;;;;7.83;7.50;;;;;8.49;46.68;102390.56;1996520;28;2739940;-80
2023/04/04 01:58:43;;;;;;;;;8.50;7.50;;;;;8.48;46.46;102383.56;1997302;28;2735753;-80
2023/04/04 01:59:56;;;;;;;;;7.33;7.00;;;;;8.47;46.36;102387.09;1996514;28;2739869;-81
2023/04/04 02:01:10;;;;;;;;;9.00;7.17;;;;;8.45;46.57;102389.69;1997340;28;2736745;-80
2023/04/04 02:02:23;;;;;;;;;7.67;7.00;;;;;8.43;46.35;102379.22;1974353;28;2737768;-80
2023/04/04 02:03:36;;;;;;;;;7.33;7.33;;;;;8.43;47.06;102387.06;1997178;28;2733631;-80
2023/04/04 02:04:49;;;;;;;;;9.00;7.17;;;;;8.42;46.88;102380.06;1997439;28;2737777;-80
2023/04/04 02:06:03;;;;;;;;;9.50;8.00;;;;;8.42;46.99;102385.31;2000589;28;2751291;-80
2023/04/04 02:07:16;;;;;;;;;9.83;8.17;;;;;8.40;46.88;102376.56;1982168;28;2749259;-80
2023/04/04 02:08:29;;;;;;;;;7.33;6.17;;;;;8.38;46.66;102378.31;1976002;28;2725294;-80
2023/04/04 02:09:42;;;;;;;;;5.50;5.50;;;;;8.37;46.54;102380.94;1997190;28;2739857;-80
2023/04/04 02:10:57;;;;;;;;;6.83;6.00;;;;;8.36;46.40;102380.06;1997052;28;2732562;-80
2023/04/04 02:12:10;;;;;;;;;7.83;7.83;;;;;8.34;47.04;102373.94;1995981;28;2742973;-80
2023/04/04 02:13:24;;;;;;;;;7.17;7.00;;;;;8.33;46.71;102378.31;1974602;28;2740883;-80
2023/04/04 02:14:37;;;;;;;;;8.50;8.00;;;;;8.31;46.56;102380.03;1996292;28;2744385;-80
2023/04/04 02:15:48;;;;;;;;;10.00;8.00;;;;;8.31;46.59;102382.66;1971874;28;2757564;-80
2023/04/04 02:16:59;;;;;;;;;9.50;9.50;;;;;8.31;46.43;102376.56;1995355;28;2769019;-80
2023/04/04 02:18:13;;;;;;;;;8.83;8.83;;;;;8.30;46.67;102377.41;1973933;28;2738815;-80
2023/04/04 02:19:24;;;;;;;;;10.00;8.00;;;;;8.29;46.77;102373.06;1969479;28;3475252;-80
2023/04/04 02:20:37;;;;;;;;;8.33;7.17;;;;;8.28;46.85;102371.28;1996711;28;2730493;-80
2023/04/04 02:21:51;;;;;;;;;9.33;8.00;;;;;8.27;46.81;102373.03;1995684;28;2746182;-80
2023/04/04 02:23:04;;;;;;;;;8.50;8.50;;;;;8.26;46.26;102379.16;1974065;28;2741936;-80
2023/04/04 02:24:18;;;;;;;;;8.67;7.17;;;;;8.25;47.01;102371.31;1965453;28;2728927;-81
2023/04/04 02:25:31;;;;;;;;;7.33;6.17;;;;;8.23;45.73;102366.03;1989372;28;2735735;-80
2023/04/04 02:26:41;;;;;;;;;8.67;7.67;;;;;8.21;46.07;102366.03;1963413;28;3462760;-81
2023/04/04 02:27:52;;;;;;;;;6.67;6.67;;;;;8.18;46.17;102360.78;1987868;28;2738101;-80
2023/04/04 02:29:06;;;;;;;;;8.00;8.00;;;;;8.16;46.40;102362.53;1958760;28;2744560;-80
2023/04/04 02:30:19;;;;;;;;;5.67;5.67;;;;;8.17;46.44;102371.28;1989936;28;2752416;-80
2023/04/04 02:31:33;;;;;;;;;7.00;7.00;;;;;8.16;47.08;102366.88;1997056;28;2737765;-80
2023/04/04 02:32:47;;;;;;;;;8.17;7.67;;;;;8.16;46.82;102366.88;1997400;28;2732877;-80
2023/04/04 02:34:00;;;;;;;;;8.00;8.00;;;;;8.15;46.86;102362.53;1996418;28;2746095;-80
2023/04/04 02:35:11;;;;;;;;;9.00;9.00;;;;;8.16;47.06;102366.88;1970610;28;2736806;-80
2023/04/04 02:36:22;;;;;;;;;9.00;9.00;;;;;8.15;46.46;102371.25;1995419;28;2731508;-80
2023/04/04 02:37:32;;;;;;;;;10.00;10.00;;;;;8.14;46.52;102361.66;1946720;28;3502307;-80
2023/04/04 02:38:43;;;;;;;;;8.33;8.00;;;;;8.14;46.08;102373.88;1994265;28;2737825;-81
2023/04/04 02:39:56;;;;;;;;;7.17;7.17;;;;;8.13;46.45;102364.25;1981845;28;2736776;-81
2023/04/04 02:41:10;;;;;;;;;8.67;8.67;;;;;8.10;46.03;102368.63;1998566;28;2746131;-81
2023/04/04 02:42:23;;;;;;;;;6.83;6.83;;;;;8.08;46.26;102365.13;1997488;28;2730482;-80
2023/04/04 02:43:36;;;;;;;;;7.00;7.00;;;;;8.08;46.22;102365.13;1985712;28;2740014;-80
2023/04/04 02:44:50;;;;;;;;;9.00;7.67;;;;;8.08;46.77;102370.34;1988461;28;2744048;-80
2023/04/04 02:46:03;;;;;;;;;8.50;7.83;;;;;8.08;46.66;102370.34;1996121;28;2740892;-81
2023/04/04 02:47:13;;;;;;;;;9.33;7.33;;;;;8.07;46.67;102371.25;1970412;28;2752448;-80
2023/04/04 02:48:24;;;;;;;;;10.67;9.33;;;;;8.08;46.26;102365.13;1985508;28;3489894;-80
2023/04/04 02:49:35;;;;;;;;;9.67;7.00;;;;;8.07;46.28;102368.63;1983433;28;3467980;-80
2023/04/04 02:50:46;;;;;;;;;9.67;8.00;;;;;8.08;46.91;102369.47;1985458;28;2761804;-80
2023/04/04 02:52:00;;;;;;;;;9.00;7.40;;;;;8.07;47.00;102359.88;1996278;28;2746119;-80
2023/04/04 02:53:10;;;;;;;;;7.00;6.33;;;;;8.07;47.02;102360.78;1940913;28;2728384;-80
2023/04/04 02:54:23;;;;;;;;;8.80;8.00;;;;;8.07;46.64;102354.66;1988558;28;2746087;-80
2023/04/04 02:55:36;;;;;;;;;7.67;7.00;;;;;8.04;46.54;102352.91;1997220;28;2738792;-80
2023/04/04 02:56:49;;;;;;;;;6.33;5.50;;;;;8.02;46.49;102345.91;2003904;28;2747212;-80
2023/04/04 02:58:00;;;;;;;;;11.33;9.00;;;;;8.01;46.19;102350.25;1968386;28;3480449;-80
2023/04/04 02:59:13;;;;;;;;;5.67;4.50;;;;;8.01;45.97;102349.38;1996665;28;2746099;-80
2023/04/04 03:00:24;;;;;;;;;8.33;6.67;;;;;7.99;46.35;102341.53;1970047;28;2736831;-80
2023/04/04 03:01:35;;;;;;;;;8.00;6.33;;;;;7.98;46.46;102347.63;1996241;28;2739862;-80
2023/04/04 03:02:56;;;;;;;;;10.00;8.17;;;;;7.97;46.93;102340.66;1974851;28;2759684;-80
2023/04/04 03:04:06;;;;;;;;;9.00;7.33;;;;;7.96;46.85;102341.50;1971202;28;2734875;-80
2023/04/04 03:05:17;;;;;;;;;8.00;7.67;;;;;7.95;47.06;102347.63;1987009;28;2743021;-80
2023/04/04 03:06:31;;;;;;;;;9.00;6.33;;;;;7.94;47.04;102349.34;1996442;28;2742981;-80
2023/04/04 03:07:45;;;;;;;;;10.33;10.00;;;;;7.94;47.25;102351.09;1975671;28;2751310;-80
2023/04/04 03:08:58;;;;;;;;;8.33;6.50;;;;;7.94;47.27;102351.97;1974611;28;2744028;-80
2023/04/04 03:10:12;;;;;;;;;9.67;8.83;;;;;7.92;47.21;102351.09;1995693;28;2754486;-80
2023/04/04 03:11:22;;;;;;;;;10.67;7.00;;;;;7.92;47.07;102352.84;1947427;28;2766920;-80
2023/04/04 03:12:33;;;;;;;;;7.00;7.00;;;;;7.90;46.58;102357.19;1993891;28;2739850;-80
2023/04/04 03:13:44;;;;;;;;;10.00;8.33;;;;;7.88;47.20;102352.81;1946724;28;3478767;-81
2023/04/04 03:14:54;;;;;;;;;11.33;8.00;;;;;7.88;47.23;102347.56;1974579;28;2775302;-80
2023/04/04 03:16:06;;;;;;;;;10.67;9.00;;;;;7.87;46.57;102348.47;1978570;28;2760688;-80
2023/04/04 03:17:17;;;;;;;;;9.67;9.00;;;;;7.86;47.36;102349.31;1962958;28;2759683;-80
2023/04/04 03:18:29;;;;;;;;;7.60;7.60;;;;;7.85;47.36;102352.78;1988016;28;2741952;-80
2023/04/04 03:19:43;;;;;;;;;8.67;7.83;;;;;7.84;46.73;102351.06;1996297;28;2737090;-80
2023/04/04 03:20:53;;;;;;;;;10.00;9.00;;;;;7.82;47.09;102347.56;1970961;28;2761727;-80
2023/04/04 03:22:04;;;;;;;;;6.33;6.33;;;;;7.81;46.40;102348.41;1984877;28;2736728;-80
2023/04/04 03:23:15;;;;;;;;;9.00;8.00;;;;;7.80;46.35;102346.69;1995644;28;2740904;-80
2023/04/04 03:24:27;;;;;;;;;12.00;8.67;;;;;7.77;46.58;102349.28;1948550;28;2763898;-80
2023/04/04 03:25:38;;;;;;;;;15.00;7.33;;;;;7.74;46.73;102350.16;1970713;28;2769603;-80
2023/04/04 03:26:49;;;;;;;;;8.00;7.00;;;;;7.71;46.44;102344.00;1996059;28;2731552;-80
2023/04/04 03:28:08;;;;;;;;;14.33;9.67;;;;;7.69;46.80;102344.00;1966916;28;3496057;-80
2023/04/04 03:29:21;;;;;;;;;6.00;6.00;;;;;7.68;46.94;102342.25;1993143;28;2738799;-80
2023/04/04 03:30:32;;;;;;;;;10.33;8.00;;;;;7.68;47.30;102341.38;1970389;28;2761716;-81
2023/04/04 03:31:43;;;;;;;;;9.00;9.00;;;;;7.67;46.53;102345.75;1994680;28;2753403;-80
2023/04/04 03:32:54;;;;;;;;;9.33;7.00;;;;;7.64;46.13;102348.34;1949515;28;2756516;-80
2023/04/04 03:34:05;;;;;;;;;8.50;8.50;;;;;7.61;46.61;102349.19;1995914;28;2734726;-80
2023/04/04 03:35:19;;;;;;;;;8.33;8.00;;;;;7.58;46.35;102346.56;1973469;28;2746114;-80
2023/04/04 03:36:32;;;;;;;;;9.17;7.17;;;;;7.57;46.64;102350.06;1996287;28;2754432;-80
2023/04/04 03:37:45;;;;;;;;;9.33;7.33;;;;;7.56;46.71;102348.28;1996768;28;2737769;-80
2023/04/04 03:38:56;;;;;;;;;7.00;7.00;;;;;7.54;46.13;102350.03;1970782;28;2744030;-80
2023/04/04 03:40:08;;;;;;;;;7.33;7.00;;;;;7.53;46.36;102350.91;1980478;28;3450821;-80
2023/04/04 03:41:21;;;;;;;;;14.33;8.17;;;;;7.52;46.23;102351.75;1993860;28;2756519;-80
2023/04/04 03:42:33;;;;;;;;;9.67;9.00;;;;;7.53;46.86;102350.91;1939619;28;2760767;-80
2023/04/04 03:43:47;;;;;;;;;11.00;8.00;;;;;7.53;46.48;102358.75;1996163;28;2752329;-80
2023/04/04 03:45:01;;;;;;;;;9.50;8.00;;;;;7.53;46.47;102356.16;1964428;28;2747170;-80
2023/04/04 03:46:15;;;;;;;;;7.17;6.00;;;;;7.54;46.69;102357.88;1967072;28;2739849;-80
2023/04/04 03:47:28;;;;;;;;;7.00;7.00;;;;;7.54;46.99;102352.66;1996888;28;2740903;-80
2023/04/04 03:48:42;;;;;;;;;10.17;7.50;;;;;7.55;46.92;102351.78;1996151;28;2753395;-80
2023/04/04 03:49:55;;;;;;;;;6.67;6.33;;;;;7.54;46.86;102352.66;1996900;28;2734646;-80
2023/04/04 03:51:06;;;;;;;;;10.00;8.00;;;;;7.54;46.56;102350.03;1970938;28;2771476;-80
2023/04/04 03:52:19;;;;;;;;;7.20;7.20;;;;;7.55;46.65;102359.63;1994134;28;2734673;-80
2023/04/04 03:53:34;;;;;;;;;10.33;8.67;;;;;7.54;46.22;102357.88;1986216;28;2762764;-80
2023/04/04 03:54:47;;;;;;;;;9.17;6.00;;;;;7.52;46.55;102365.72;1970135;28;2746587;-81
2023/04/04 03:56:01;;;;;;;;;9.67;7.50;;;;;7.50;46.06;102358.72;1978880;28;2751362;-80
2023/04/04 03:57:11;;;;;;;;;8.00;8.00;;;;;7.48;46.63;102355.25;1970049;28;2738810;-80
2023/04/04 03:58:23;;;;;;;;;8.67;8.00;;;;;7.46;46.57;102359.59;1981671;28;2746199;-80
2023/04/04 03:59:33;;;;;;;;;10.00;10.00;;;;;7.43;46.44;102357.81;1970003;28;2774219;-80
2023/04/04 04:00:44;;;;;;;;;8.00;8.00;;;;;7.41;46.33;102355.19;1993303;28;2748178;-80
2023/04/04 04:01:57;;;;;;;;;9.50;8.83;;;;;7.41;47.18;102349.94;1996636;28;2748187;-80
2023/04/04 04:03:11;;;;;;;;;3.17;2.17;;;;;7.41;46.90;102356.91;1972865;28;2746115;-80
2023/04/04 04:04:21;;;;;;;;;10.00;9.00;;;;;7.40;46.48;102356.06;1967815;28;3490877;-80
2023/04/04 04:05:33;;;;;;;;;8.50;7.75;;;;;7.39;46.64;102354.31;1993062;28;2744120;-80
2023/04/04 04:06:47;;;;;;;;;6.83;6.17;;;;;7.39;46.73;102362.16;1988205;28;2742992;-81
2023/04/04 04:08:01;;;;;;;;;8.33;6.83;;;;;7.39;46.72;102359.53;1988536;28;2734660;-80
2023/04/04 04:09:14;;;;;;;;;9.67;8.50;;;;;7.38;46.73;102362.16;1988552;28;2740879;-80
2023/04/04 04:10:25;;;;;;;;;10.33;8.00;;;;;7.37;46.64;102363.88;1940035;28;2771121;-80
2023/04/04 04:11:37;;;;;;;;;8.20;8.20;;;;;7.37;46.83;102365.63;1992254;28;2741964;-80
2023/04/04 04:12:48;;;;;;;;;11.00;8.00;;;;;7.37;47.18;102369.13;1964421;28;2765018;-80
2023/04/04 04:14:02;;;;;;;;;10.33;10.00;;;;;7.36;47.58;102369.97;1982010;28;3504425;-80
2023/04/04 04:15:15;;;;;;;;;8.83;8.83;;;;;7.36;47.00;102372.59;1994303;28;2736716;-80
2023/04/04 04:16:27;;;;;;;;;10.33;7.00;;;;;7.35;46.56;102377.81;1939145;28;2745073;-80
2023/04/04 04:17:40;;;;;;;;;10.00;9.00;;;;;7.33;46.58;102372.59;1961579;28;3486725;-80
2023/04/04 04:18:54;;;;;;;;;6.00;6.00;;;;;7.30;46.70;102377.78;1988965;28;2734642;-80
2023/04/04 04:20:08;;;;;;;;;8.50;8.50;;;;;7.30;47.05;102375.16;1986957;28;2737766;-80
2023/04/04 04:21:18;;;;;;;;;9.33;8.33;;;;;7.29;46.75;102379.53;1962799;28;2752380;-80
2023/04/04 04:22:29;;;;;;;;;8.33;8.00;;;;;7.29;46.69;102379.53;1987040;28;2740888;-80
2023/04/04 04:23:43;;;;;;;;;7.83;6.17;;;;;7.29;46.86;102378.63;1988491;28;2746482;-80
2023/04/04 04:24:56;;;;;;;;;8.33;8.33;;;;;7.29;46.64;102384.75;1987402;28;2748189;-80
2023/04/04 04:26:06;;;;;;;;;13.33;8.33;;;;;7.31;46.82;102387.38;1962346;28;2767982;-80
2023/04/04 04:27:17;;;;;;;;;8.00;8.00;;;;;7.30;46.96;102393.47;1987872;28;2738827;-81
2023/04/04 04:28:31;;;;;;;;;7.83;7.83;;;;;7.29;46.22;102391.72;1988426;28;2740911;-80
2023/04/04 04:29:44;;;;;;;;;8.50;7.50;;;;;7.27;47.11;102391.72;1987235;28;2744016;-80
2023/04/04 04:31:08;;;;;;;;;8.67;8.00;;;;;7.26;46.71;102391.72;1988438;28;2733947;-80
2023/04/04 04:32:21;;;;;;;;;7.17;7.17;;;;;7.25;46.73;102400.41;1988429;28;2732597;-81
2023/04/04 04:33:35;;;;;;;;;9.17;9.00;;;;;7.23;46.37;102404.75;1995246;28;2733600;-80
2023/04/04 04:34:45;;;;;;;;;8.33;8.00;;;;;7.22;47.14;102403.88;1943971;28;3454491;-80
2023/04/04 04:36:00;;;;;;;;;9.67;9.00;;;;;7.22;47.00;102405.59;1986817;28;2758603;-80
2023/04/04 04:37:14;;;;;;;;;8.00;7.00;;;;;7.20;47.06;102403.00;1965311;28;2747607;-80
2023/04/04 04:38:24;;;;;;;;;8.00;8.00;;;;;7.17;46.81;102403.84;1969524;28;2739840;-80
2023/04/04 04:39:35;;;;;;;;;9.00;7.67;;;;;7.17;46.83;102406.47;1992891;28;2737767;-80
2023/04/04 04:40:49;;;;;;;;;10.33;7.17;;;;;7.14;46.74;102406.41;1987324;28;2752372;-80
2023/04/04 04:42:02;;;;;;;;;7.33;7.33;;;;;7.13;47.33;102404.69;1964984;28;2732614;-80
2023/04/04 04:43:15;;;;;;;;;8.50;8.33;;;;;7.14;47.04;102413.38;1988930;28;2746135;-80
2023/04/04 04:44:28;;;;;;;;;7.00;6.83;;;;;7.12;46.79;102407.28;1993916;28;2741927;-80
2023/04/04 04:45:42;;;;;;;;;9.33;8.50;;;;;7.12;47.14;102402.03;1993110;28;2738905;-80
2023/04/04 04:46:52;;;;;;;;;11.00;10.00;;;;;7.12;47.55;102408.16;1939554;28;3514862;-80
2023/04/04 04:48:05;;;;;;;;;8.67;7.67;;;;;7.12;47.06;102405.53;1985867;28;2751303;-80
2023/04/04 04:49:18;;;;;;;;;7.50;5.50;;;;;7.12;47.55;102402.03;1966235;28;2738812;-81
2023/04/04 04:50:28;;;;;;;;;9.00;9.00;;;;;7.12;47.11;102405.53;1958533;28;3456508;-80
2023/04/04 04:51:41;;;;;;;;;9.00;7.67;;;;;7.11;46.83;102410.78;1991319;28;1831660;-81
2023/04/04 04:52:54;;;;;;;;;7.83;7.83;;;;;7.09;46.60;102413.34;1974978;28;2746446;-80
2023/04/04 04:54:07;;;;;;;;;8.00;8.00;;;;;7.07;47.26;102413.34;1970732;28;2746103;-81
2023/04/04 04:55:20;;;;;;;;;7.33;6.17;;;;;7.05;46.70;102417.69;1995038;28;2738281;-80
2023/04/04 04:56:34;;;;;;;;;8.83;7.17;;;;;7.03;46.57;102421.16;1987679;28;2745114;-80
2023/04/04 04:57:47;;;;;;;;;8.67;8.50;;;;;7.01;46.96;102415.91;1996407;28;2746103;-80
2023/04/04 04:59:00;;;;;;;;;7.00;6.00;;;;;7.01;46.89;102412.44;1996665;28;2744044;-80
2023/04/04 05:00:11;;;;;;;;;8.00;8.00;;;;;6.97;46.94;102417.63;1962188;28;2731606;-80
2023/04/04 05:01:24;;;;;;;;;7.20;7.00;;;;;6.97;47.59;102411.50;1987906;28;2740393;-80
2023/04/04 05:02:35;;;;;;;;;8.33;7.33;;;;;6.96;47.34;102415.00;1940421;28;2740292;-80
2023/04/04 05:03:45;;;;;;;;;11.33;8.33;;;;;6.96;47.34;102408.00;1960783;28;2759723;-80
2023/04/04 05:04:56;;;;;;;;;12.33;8.00;;;;;6.96;47.49;102408.00;1976696;28;2759650;-81
2023/04/04 05:06:07;;;;;;;;;9.67;8.00;;;;;6.96;47.66;102405.38;1982711;28;2748313;-81
2023/04/04 05:07:19;;;;;;;;;7.00;7.00;;;;;6.95;47.12;102406.28;1986311;28;2739884;-81
2023/04/04 05:08:32;;;;;;;;;7.00;7.00;;;;;6.95;47.47;102410.63;1989003;28;2738856;-80
2023/04/04 05:09:45;;;;;;;;;8.00;8.00;;;;;6.93;47.53;102405.38;1996232;28;2746106;-80
2023/04/04 05:10:56;;;;;;;;;10.00;8.00;;;;;6.92;47.02;102411.47;1968473;28;3486031;-80
2023/04/04 05:12:06;;;;;;;;;9.00;9.00;;;;;6.90;47.55;102410.56;1984481;28;3461714;-81
2023/04/04 05:13:18;;;;;;;;;8.00;7.00;;;;;6.86;46.87;102412.28;1995721;28;2731553;-80
2023/04/04 05:14:28;;;;;;;;;8.33;8.00;;;;;6.84;46.84;102407.91;1948911;28;2748273;-80
2023/04/04 05:15:40;;;;;;;;;7.50;7.50;;;;;6.80;46.54;102412.22;1994767;28;2738920;-81
2023/04/04 05:16:51;;;;;;;;;10.00;8.67;;;;;6.78;47.19;102407.84;1971032;28;2753379;-81
2023/04/04 05:18:02;;;;;;;;;11.67;8.67;;;;;6.77;47.28;102409.56;1984395;28;2767980;-80
2023/04/04 05:19:13;;;;;;;;;10.33;8.00;;;;;6.77;47.74;102412.19;1983446;28;2761723;-80
2023/04/04 05:20:24;;;;;;;;;7.67;7.67;;;;;6.77;47.63;102413.91;1995823;28;2733618;-80
2023/04/04 05:21:37;;;;;;;;;8.33;6.50;;;;;6.73;47.33;102411.28;1974486;28;2741920;-80
2023/04/04 05:22:47;;;;;;;;;10.00;10.00;;;;;6.73;47.52;102400.84;1960346;28;3507551;-80
2023/04/04 05:23:58;;;;;;;;;10.67;9.33;;;;;6.73;47.51;102400.84;1976704;28;3488814;-81
2023/04/04 05:25:11;;;;;;;;;7.25;7.25;;;;;6.72;47.42;102404.31;1987229;28;2744399;-81
2023/04/04 05:26:24;;;;;;;;;9.17;7.17;;;;;6.70;47.93;102398.19;2000935;28;2730527;-80
2023/04/04 05:27:41;;;;;;;;;10.17;7.33;;;;;6.69;47.93;102396.41;1967656;28;2739858;-81
2023/04/04 05:28:54;;;;;;;;;7.00;7.00;;;;;6.70;47.78;102406.03;1967957;28;2732638;-80
2023/04/04 05:30:06;;;;;;;;;10.50;8.25;;;;;6.71;47.56;102397.34;1979334;28;1839946;-80
2023/04/04 05:31:20;;;;;;;;;9.83;7.33;;;;;6.72;47.62;102396.47;1981244;28;2748199;-80
2023/04/04 05:32:30;;;;;;;;;14.00;10.67;;;;;6.73;48.12;102394.72;1939948;28;3511760;-80
2023/04/04 05:33:41;;;;;;;;;6.00;5.00;;;;;6.73;47.94;102394.72;1996697;28;2739865;-81
2023/04/04 05:34:54;;;;;;;;;8.33;8.00;;;;;6.74;47.77;102399.97;1975343;28;2744102;-81